Terminal Aerodrome Forecast
Issued by NWS

Home | Current Version | Previous Version | Text Only | Print | Product List | Glossary On
Versions: 1 2 3 4 5 6 7 8 9 10 11 12 13 14 15 16 17
000
FTUS44 KHGX 181725
TAFLBX
TAF
KLBX 181725Z 1818/1918 02011KT P6SM SCT050
     FM190600 07002KT 6SM BR FEW050 SCT250
     FM191500 10006KT P6SM SCT035 BKN250=

USA.gov is the U.S. government's official web portal to all federal, state and local government web resources and services.